CCM55VN LFKB-LFPO
Flight info
| Callsign | CCM55VN |
|---|---|
| Flight time | N/A |
| Altitude | 34000 |
| Route | MEGER Z911 OLETI DCT AOSTA DCT ORSUD DCT MOLUS DCT UNKIR DCT DJL DJL9E LFPO07 |
| Aircraft | A320/M-SDE3FGHIRWY/LB1 |
Departure
| Time | N/A |
|---|---|
| Airport | Bastia-Poretta International airport (LFKB) |
Arrival
| Time | 2026-04-30 10:30 |
|---|---|
| Airport | Paris-Orly Airport (LFPO) |
| Time | Latitude | Longitude | Altitude | Speed | Heading |
|---|---|---|---|---|---|
| 2026-04-30 09:26 | 44.77013 | 8.22179 | 34263 ft | 396 kts | 327° |
| 2026-04-30 09:26 | 44.79511 | 8.20092 | 34263 ft | 396 kts | 327° |
| 2026-04-30 09:26 | 44.84245 | 8.16131 | 34263 ft | 396 kts | 327° |
| 2026-04-30 09:27 | 44.88968 | 8.12175 | 34263 ft | 396 kts | 327° |
| 2026-04-30 09:27 | 44.93708 | 8.08189 | 34280 ft | 395 kts | 327° |
| 2026-04-30 09:28 | 44.98421 | 8.04213 | 34257 ft | 394 kts | 327° |
| 2026-04-30 09:28 | 45.03129 | 8.00233 | 34264 ft | 395 kts | 327° |
| 2026-04-30 09:29 | 45.03768 | 7.99693 | 34264 ft | 395 kts | 327° |
| 2026-04-30 09:30 | 45.05457 | 7.98265 | 34260 ft | 395 kts | 327° |
| 2026-04-30 09:30 | 45.10155 | 7.94294 | 34266 ft | 396 kts | 327° |
| 2026-04-30 09:31 | 45.11869 | 7.92843 | 34286 ft | 396 kts | 327° |
| 2026-04-30 09:31 | 45.14396 | 7.90701 | 34303 ft | 396 kts | 327° |
| 2026-04-30 09:32 | 45.19116 | 7.86692 | 34312 ft | 396 kts | 327° |
| 2026-04-30 09:32 | 45.23840 | 7.82683 | 34316 ft | 396 kts | 327° |
| 2026-04-30 09:33 | 45.28560 | 7.78665 | 34316 ft | 396 kts | 327° |
| 2026-04-30 09:33 | 45.33275 | 7.74632 | 34323 ft | 396 kts | 327° |
| 2026-04-30 09:34 | 45.37995 | 7.70585 | 34293 ft | 397 kts | 327° |
| 2026-04-30 09:34 | 45.42724 | 7.66528 | 34286 ft | 397 kts | 327° |
| 2026-04-30 09:35 | 45.47459 | 7.62467 | 34281 ft | 398 kts | 327° |
| 2026-04-30 09:35 | 45.50420 | 7.59919 | 34274 ft | 398 kts | 327° |
| 2026-04-30 09:36 | 45.51924 | 7.58622 | 34277 ft | 399 kts | 327° |
| 2026-04-30 09:36 | 45.54871 | 7.56076 | 34276 ft | 399 kts | 327° |
| 2026-04-30 09:37 | 45.57943 | 7.53418 | 34275 ft | 400 kts | 327° |
| 2026-04-30 09:38 | 45.61017 | 7.50758 | 34257 ft | 400 kts | 328° |
| 2026-04-30 09:38 | 45.65783 | 7.46632 | 34254 ft | 401 kts | 328° |
| 2026-04-30 09:39 | 45.70550 | 7.42493 | 34252 ft | 401 kts | 327° |
| 2026-04-30 09:39 | 45.75324 | 7.38337 | 34256 ft | 403 kts | 329° |
| 2026-04-30 09:40 | 45.80088 | 7.34173 | 34241 ft | 405 kts | 328° |
| 2026-04-30 09:40 | 45.84792 | 7.29588 | 34239 ft | 407 kts | 324° |
| 2026-04-30 09:41 | 45.89347 | 7.24822 | 34225 ft | 408 kts | 324° |
| 2026-04-30 09:41 | 45.93955 | 7.20028 | 34217 ft | 410 kts | 324° |
| 2026-04-30 09:42 | 45.98602 | 7.15271 | 34167 ft | 410 kts | 325° |
| 2026-04-30 09:42 | 46.03264 | 7.10519 | 34145 ft | 411 kts | 325° |
| 2026-04-30 09:43 | 46.07926 | 7.05738 | 34152 ft | 412 kts | 325° |
| 2026-04-30 09:43 | 46.12593 | 7.00949 | 34152 ft | 412 kts | 325° |
| 2026-04-30 09:44 | 46.17254 | 6.96134 | 34152 ft | 412 kts | 325° |
| 2026-04-30 09:44 | 46.21929 | 6.91304 | 34147 ft | 414 kts | 326° |
| 2026-04-30 09:45 | 46.26616 | 6.86459 | 34154 ft | 415 kts | 325° |
| 2026-04-30 09:45 | 46.31312 | 6.81586 | 34165 ft | 416 kts | 325° |
| 2026-04-30 09:46 | 46.36007 | 6.76698 | 34160 ft | 416 kts | 325° |
| 2026-04-30 09:46 | 46.40703 | 6.71799 | 34186 ft | 417 kts | 326° |
| 2026-04-30 09:47 | 46.44946 | 6.66078 | 34178 ft | 420 kts | 308° |
| 2026-04-30 09:47 | 46.47993 | 6.58823 | 34199 ft | 422 kts | 301° |
| 2026-04-30 09:48 | 46.50920 | 6.51425 | 34201 ft | 423 kts | 301° |
| 2026-04-30 09:48 | 46.53854 | 6.44016 | 34188 ft | 423 kts | 301° |
| 2026-04-30 09:49 | 46.56759 | 6.36635 | 34191 ft | 424 kts | 301° |
| 2026-04-30 09:49 | 46.59678 | 6.29187 | 34179 ft | 424 kts | 301° |
| 2026-04-30 09:50 | 46.62601 | 6.21729 | 34173 ft | 425 kts | 301° |
| 2026-04-30 09:50 | 46.65522 | 6.14256 | 34157 ft | 425 kts | 301° |
| 2026-04-30 09:51 | 46.68426 | 6.06766 | 34167 ft | 425 kts | 301° |
| 2026-04-30 09:51 | 46.71327 | 5.99260 | 34152 ft | 425 kts | 301° |
| 2026-04-30 09:52 | 46.74226 | 5.91745 | 34146 ft | 426 kts | 301° |
| 2026-04-30 09:52 | 46.77133 | 5.84223 | 34142 ft | 426 kts | 301° |
| 2026-04-30 09:53 | 46.80035 | 5.76694 | 34148 ft | 426 kts | 301° |
| 2026-04-30 09:53 | 46.83608 | 5.69879 | 34124 ft | 423 kts | 318° |
| 2026-04-30 09:54 | 46.87910 | 5.64017 | 34137 ft | 423 kts | 318° |
| 2026-04-30 09:54 | 46.92213 | 5.58126 | 34139 ft | 424 kts | 318° |
| 2026-04-30 09:55 | 46.96515 | 5.52200 | 34146 ft | 425 kts | 318° |
| 2026-04-30 09:55 | 47.00814 | 5.46259 | 34144 ft | 425 kts | 318° |
| 2026-04-30 09:56 | 47.05118 | 5.40304 | 34148 ft | 425 kts | 318° |
| 2026-04-30 09:56 | 47.09431 | 5.34340 | 34134 ft | 427 kts | 318° |
| 2026-04-30 09:57 | 47.13723 | 5.28390 | 34139 ft | 428 kts | 318° |
| 2026-04-30 09:57 | 47.18054 | 5.22369 | 34138 ft | 429 kts | 318° |
| 2026-04-30 09:58 | 47.22407 | 5.16299 | 34171 ft | 438 kts | 318° |
| 2026-04-30 09:58 | 47.26877 | 5.10045 | 34167 ft | 446 kts | 318° |
| 2026-04-30 09:59 | 47.35575 | 4.96785 | 34165 ft | 451 kts | 314° |
| 2026-04-30 10:00 | 47.39873 | 4.90029 | 33194 ft | 451 kts | 315° |
| 2026-04-30 10:00 | 47.42032 | 4.86675 | 32538 ft | 449 kts | 315° |
| 2026-04-30 10:01 | 47.46309 | 4.80068 | 31408 ft | 441 kts | 315° |
| 2026-04-30 10:01 | 47.48422 | 4.76803 | 30847 ft | 438 kts | 315° |
| 2026-04-30 10:01 | 47.50516 | 4.73558 | 30295 ft | 436 kts | 315° |
| 2026-04-30 10:02 | 47.54683 | 4.67083 | 29001 ft | 432 kts | 316° |
| 2026-04-30 10:02 | 47.56719 | 4.63909 | 28453 ft | 429 kts | 315° |
| 2026-04-30 10:02 | 47.58790 | 4.60675 | 27906 ft | 425 kts | 316° |
| 2026-04-30 10:02 | 47.60788 | 4.57551 | 27377 ft | 422 kts | 315° |
| 2026-04-30 10:03 | 47.62796 | 4.54407 | 26853 ft | 419 kts | 315° |
| 2026-04-30 10:03 | 47.64794 | 4.51281 | 26327 ft | 416 kts | 315° |
| 2026-04-30 10:03 | 47.66777 | 4.48169 | 25826 ft | 414 kts | 315° |
| 2026-04-30 10:03 | 47.68747 | 4.45070 | 25333 ft | 411 kts | 316° |
| 2026-04-30 10:04 | 47.70704 | 4.41990 | 24856 ft | 409 kts | 316° |
| 2026-04-30 10:04 | 47.72650 | 4.38928 | 24380 ft | 407 kts | 316° |
| 2026-04-30 10:04 | 47.74588 | 4.35878 | 23897 ft | 405 kts | 316° |
| 2026-04-30 10:04 | 47.76510 | 4.32841 | 23456 ft | 401 kts | 316° |
| 2026-04-30 10:05 | 47.78392 | 4.29856 | 23212 ft | 391 kts | 316° |
| 2026-04-30 10:05 | 47.80230 | 4.26943 | 22955 ft | 382 kts | 316° |
| 2026-04-30 10:05 | 47.82031 | 4.24092 | 22714 ft | 375 kts | 316° |
| 2026-04-30 10:05 | 47.83810 | 4.21279 | 22458 ft | 372 kts | 316° |
| 2026-04-30 10:06 | 47.85581 | 4.18481 | 22223 ft | 371 kts | 316° |
| 2026-04-30 10:06 | 47.87223 | 4.15507 | 21984 ft | 373 kts | 305° |
| 2026-04-30 10:06 | 47.88435 | 4.12100 | 21738 ft | 373 kts | 292° |
| 2026-04-30 10:06 | 47.89174 | 4.08405 | 21494 ft | 372 kts | 282° |
| 2026-04-30 10:07 | 47.89719 | 4.04643 | 21251 ft | 371 kts | 282° |
| 2026-04-30 10:07 | 47.90265 | 4.00899 | 21013 ft | 369 kts | 282° |
| 2026-04-30 10:07 | 47.90808 | 3.97167 | 20772 ft | 367 kts | 282° |
| 2026-04-30 10:07 | 47.91349 | 3.93452 | 20533 ft | 366 kts | 282° |
| 2026-04-30 10:08 | 47.91886 | 3.89758 | 20294 ft | 364 kts | 282° |
| 2026-04-30 10:08 | 47.92419 | 3.86070 | 20055 ft | 363 kts | 282° |
| 2026-04-30 10:08 | 47.92947 | 3.82403 | 19824 ft | 361 kts | 282° |
| 2026-04-30 10:08 | 47.93475 | 3.78750 | 19585 ft | 359 kts | 282° |
| 2026-04-30 10:09 | 47.93997 | 3.75117 | 19348 ft | 358 kts | 282° |
| 2026-04-30 10:09 | 47.94515 | 3.71496 | 19115 ft | 356 kts | 282° |
| 2026-04-30 10:09 | 47.95029 | 3.67886 | 18880 ft | 355 kts | 282° |
| 2026-04-30 10:09 | 47.95539 | 3.64291 | 18642 ft | 354 kts | 282° |
| 2026-04-30 10:10 | 47.96069 | 3.60712 | 18413 ft | 352 kts | 286° |
| 2026-04-30 10:10 | 47.96956 | 3.57325 | 18165 ft | 351 kts | 299° |
| 2026-04-30 10:10 | 47.98284 | 3.54278 | 17731 ft | 351 kts | 311° |
| 2026-04-30 10:10 | 47.99960 | 3.51642 | 17301 ft | 349 kts | 316° |
| 2026-04-30 10:11 | 48.01661 | 3.49077 | 16916 ft | 347 kts | 316° |
| 2026-04-30 10:11 | 48.03344 | 3.46521 | 16513 ft | 346 kts | 316° |
| 2026-04-30 10:11 | 48.05024 | 3.43956 | 16110 ft | 345 kts | 316° |
| 2026-04-30 10:11 | 48.06664 | 3.41449 | 15863 ft | 339 kts | 316° |
| 2026-04-30 10:12 | 48.08327 | 3.38899 | 15513 ft | 337 kts | 315° |
| 2026-04-30 10:12 | 48.09941 | 3.36421 | 15137 ft | 337 kts | 316° |
| 2026-04-30 10:12 | 48.11576 | 3.33911 | 14771 ft | 336 kts | 316° |
| 2026-04-30 10:12 | 48.13204 | 3.31412 | 14410 ft | 335 kts | 316° |
| 2026-04-30 10:13 | 48.14828 | 3.28911 | 14061 ft | 334 kts | 315° |
| 2026-04-30 10:13 | 48.16440 | 3.26428 | 13765 ft | 330 kts | 316° |
| 2026-04-30 10:13 | 48.18039 | 3.23960 | 13335 ft | 331 kts | 316° |
| 2026-04-30 10:13 | 48.19641 | 3.21492 | 12963 ft | 329 kts | 316° |
| 2026-04-30 10:14 | 48.21233 | 3.19038 | 12602 ft | 327 kts | 316° |
| 2026-04-30 10:14 | 48.22824 | 3.16594 | 12207 ft | 327 kts | 315° |
| 2026-04-30 10:14 | 48.25424 | 3.12597 | 11743 ft | 318 kts | 315° |
| 2026-04-30 10:15 | 48.26970 | 3.10211 | 11330 ft | 319 kts | 315° |
| 2026-04-30 10:15 | 48.28511 | 3.07831 | 11018 ft | 316 kts | 315° |
| 2026-04-30 10:15 | 48.29890 | 3.05289 | 10710 ft | 312 kts | 302° |
| 2026-04-30 10:15 | 48.30981 | 3.02487 | 10410 ft | 309 kts | 300° |
| 2026-04-30 10:16 | 48.32054 | 2.99704 | 10080 ft | 307 kts | 300° |
| 2026-04-30 10:16 | 48.33127 | 2.96926 | 9672 ft | 307 kts | 300° |
| 2026-04-30 10:16 | 48.34194 | 2.94163 | 9314 ft | 304 kts | 300° |
| 2026-04-30 10:17 | 48.36298 | 2.88724 | 8867 ft | 299 kts | 300° |
| 2026-04-30 10:17 | 48.38377 | 2.83325 | 8476 ft | 297 kts | 300° |
| 2026-04-30 10:17 | 48.39411 | 2.80635 | 8276 ft | 297 kts | 300° |
| 2026-04-30 10:18 | 48.40440 | 2.77945 | 8073 ft | 296 kts | 300° |
| 2026-04-30 10:18 | 48.41464 | 2.75263 | 7847 ft | 295 kts | 300° |
| 2026-04-30 10:18 | 48.42490 | 2.72581 | 7676 ft | 295 kts | 300° |
| 2026-04-30 10:19 | 48.44524 | 2.67276 | 7294 ft | 294 kts | 300° |
| 2026-04-30 10:19 | 48.45541 | 2.64610 | 7103 ft | 293 kts | 300° |
| 2026-04-30 10:19 | 48.46552 | 2.61951 | 6908 ft | 293 kts | 300° |
| 2026-04-30 10:19 | 48.47564 | 2.59295 | 6690 ft | 292 kts | 300° |
| 2026-04-30 10:20 | 48.48575 | 2.56647 | 6347 ft | 289 kts | 300° |
| 2026-04-30 10:20 | 48.50486 | 2.51627 | 6016 ft | 268 kts | 300° |
| 2026-04-30 10:20 | 48.51399 | 2.49217 | 5787 ft | 261 kts | 298° |
| 2026-04-30 10:21 | 48.52064 | 2.46718 | 5600 ft | 253 kts | 286° |
| 2026-04-30 10:21 | 48.52546 | 2.44195 | 5400 ft | 248 kts | 284° |
| 2026-04-30 10:21 | 48.52998 | 2.41713 | 5197 ft | 244 kts | 284° |
| 2026-04-30 10:21 | 48.53445 | 2.39267 | 4997 ft | 240 kts | 284° |
| 2026-04-30 10:22 | 48.53892 | 2.36857 | 4795 ft | 237 kts | 284° |
| 2026-04-30 10:22 | 48.54336 | 2.34486 | 4594 ft | 232 kts | 284° |
| 2026-04-30 10:22 | 48.54794 | 2.32170 | 4389 ft | 229 kts | 287° |
| 2026-04-30 10:22 | 48.55305 | 2.29904 | 4187 ft | 227 kts | 288° |
| 2026-04-30 10:23 | 48.55817 | 2.27670 | 3979 ft | 223 kts | 288° |
| 2026-04-30 10:23 | 48.56321 | 2.25464 | 3783 ft | 222 kts | 288° |
| 2026-04-30 10:23 | 48.56822 | 2.23258 | 3580 ft | 222 kts | 288° |
| 2026-04-30 10:23 | 48.57472 | 2.21146 | 3385 ft | 222 kts | 308° |
| 2026-04-30 10:24 | 48.58477 | 2.19377 | 3162 ft | 222 kts | 315° |
| 2026-04-30 10:24 | 48.59549 | 2.17685 | 2961 ft | 223 kts | 316° |
| 2026-04-30 10:24 | 48.60620 | 2.16022 | 2885 ft | 220 kts | 316° |
| 2026-04-30 10:24 | 48.61754 | 2.14489 | 2877 ft | 218 kts | 325° |
| 2026-04-30 10:25 | 48.62957 | 2.13099 | 2879 ft | 218 kts | 324° |
| 2026-04-30 10:25 | 48.64214 | 2.11849 | 2862 ft | 214 kts | 345° |
| 2026-04-30 10:25 | 48.65641 | 2.11589 | 2886 ft | 204 kts | 17° |
| 2026-04-30 10:25 | 48.66902 | 2.12330 | 2886 ft | 189 kts | 45° |
| 2026-04-30 10:26 | 48.67752 | 2.13750 | 2884 ft | 178 kts | 72° |
| 2026-04-30 10:26 | 48.68116 | 2.15425 | 2904 ft | 159 kts | 81° |
| 2026-04-30 10:26 | 48.68418 | 2.16965 | 2779 ft | 150 kts | 81° |
| 2026-04-30 10:26 | 48.68703 | 2.18464 | 2580 ft | 145 kts | 79° |
| 2026-04-30 10:27 | 48.68968 | 2.19868 | 2422 ft | 135 kts | 81° |
| 2026-04-30 10:27 | 48.69218 | 2.21208 | 2267 ft | 131 kts | 81° |
| 2026-04-30 10:27 | 48.69466 | 2.22537 | 2078 ft | 132 kts | 80° |
| 2026-04-30 10:27 | 48.69709 | 2.23844 | 1899 ft | 130 kts | 80° |
| 2026-04-30 10:28 | 48.69953 | 2.25154 | 1741 ft | 129 kts | 79° |
| 2026-04-30 10:28 | 48.70194 | 2.26470 | 1554 ft | 130 kts | 78° |
| 2026-04-30 10:28 | 48.70424 | 2.27788 | 1368 ft | 129 kts | 78° |
| 2026-04-30 10:28 | 48.70647 | 2.29096 | 1197 ft | 128 kts | 77° |
| 2026-04-30 10:29 | 48.70915 | 2.30387 | 1085 ft | 129 kts | 75° |
| 2026-04-30 10:29 | 48.71180 | 2.31680 | 936 ft | 130 kts | 77° |
| 2026-04-30 10:29 | 48.71396 | 2.33010 | 760 ft | 129 kts | 78° |
| 2026-04-30 10:29 | 48.71638 | 2.34326 | 574 ft | 129 kts | 74° |
| 2026-04-30 10:30 | 48.71897 | 2.35634 | 391 ft | 128 kts | 75° |
| 2026-04-30 10:30 | 48.72136 | 2.36868 | 299 ft | 111 kts | 75° |
| 2026-04-30 10:30 | 48.72293 | 2.37769 | 297 ft | 63 kts | 75° |
| 2026-04-30 10:30 | 48.72364 | 2.38161 | 300 ft | 16 kts | 72° |
| 2026-04-30 10:31 | 48.72405 | 2.38356 | 299 ft | 21 kts | 74° |
| 2026-04-30 10:31 | 48.72454 | 2.38555 | 297 ft | 20 kts | 47° |
| 2026-04-30 10:31 | 48.72574 | 2.38661 | 299 ft | 20 kts | 20° |
| 2026-04-30 10:31 | 48.72713 | 2.38730 | 297 ft | 20 kts | 18° |
| 2026-04-30 10:32 | 48.72832 | 2.38735 | 297 ft | 17 kts | 308° |
| 2026-04-30 10:32 | 48.72837 | 2.38566 | 297 ft | 16 kts | 265° |
| 2026-04-30 10:32 | 48.72825 | 2.38405 | 294 ft | 15 kts | 262° |
| 2026-04-30 10:32 | 48.72807 | 2.38300 | 293 ft | 0 kts | 253° |
| 2026-04-30 10:33 | 48.72807 | 2.38299 | 293 ft | 1 kts | 253° |
| 2026-04-30 10:33 | 48.72801 | 2.38270 | 296 ft | 4 kts | 253° |
| 2026-04-30 10:33 | 48.72796 | 2.38242 | 294 ft | 1 kts | 253° |
| 2026-04-30 10:34 | 48.72777 | 2.38142 | 297 ft | 15 kts | 255° |
| 2026-04-30 10:34 | 48.72752 | 2.38000 | 294 ft | 16 kts | 255° |
| 2026-04-30 10:34 | 48.72720 | 2.37831 | 296 ft | 15 kts | 257° |
| 2026-04-30 10:34 | 48.72763 | 2.37706 | 296 ft | 14 kts | 317° |
| 2026-04-30 10:35 | 48.72777 | 2.37579 | 299 ft | 12 kts | 261° |
| 2026-04-30 10:35 | 48.72753 | 2.37461 | 295 ft | 11 kts | 246° |
| 2026-04-30 10:35 | 48.72723 | 2.37355 | 296 ft | 10 kts | 251° |
| 2026-04-30 10:35 | 48.72693 | 2.37214 | 298 ft | 21 kts | 252° |
| 2026-04-30 10:36 | 48.72655 | 2.37030 | 296 ft | 16 kts | 256° |
| 2026-04-30 10:36 | 48.72631 | 2.36872 | 299 ft | 15 kts | 257° |
| 2026-04-30 10:36 | 48.72602 | 2.36701 | 298 ft | 19 kts | 248° |
| 2026-04-30 10:36 | 48.72590 | 2.36644 | 294 ft | 2 kts | 264° |
| 2026-04-30 10:37 | 48.72611 | 2.36635 | 300 ft | 1 kts | 52° |
| 2026-04-30 10:37 | 48.72613 | 2.36652 | 300 ft | 5 kts | 75° |
| 2026-04-30 10:37 | 48.72612 | 2.36731 | 294 ft | 9 kts | 90° |
| 2026-04-30 10:37 | 48.72623 | 2.36840 | 295 ft | 7 kts | 79° |
| 2026-04-30 10:38 | 48.72659 | 2.36898 | 296 ft | 8 kts | 50° |
| 2026-04-30 10:38 | 48.72713 | 2.36918 | 296 ft | 8 kts | 349° |
| 2026-04-30 10:38 | 48.72721 | 2.36916 | 297 ft | 0 kts | 349° |